Time;durP1;ratioP1;P1;durP2;ratioP2;P2;SDS_P1;SDS_P2;PMS_P1;PMS_P2;Temp;Humidity;BMP_temperature;BMP_pressure;BME280_temperature;BME280_humidity;BME280_pressure;Samples;Min_cycle;Max_cycle;Signal;HPM_P1;HPM_P2
2023/09/02 00:00:12;;;;;;;7.20;5.43;;;15.50;99.90;;;;;;5052889;28;20538;-74
2023/09/02 00:02:38;;;;;;;6.30;5.60;;;15.40;99.90;;;;;;5051463;28;20723;-74
2023/09/02 00:05:04;;;;;;;7.63;5.53;;;15.40;99.90;;;;;;5052400;28;20413;-73
2023/09/02 00:07:30;;;;;;;9.13;5.60;;;15.20;99.90;;;;;;5052553;28;20187;-75
2023/09/02 00:09:55;;;;;;;8.20;6.77;;;15.20;99.90;;;;;;5052641;28;20413;-74
2023/09/02 00:12:21;;;;;;;6.50;5.30;;;15.10;99.90;;;;;;5052500;28;20191;-75
2023/09/02 00:14:46;;;;;;;7.40;6.17;;;15.10;99.90;;;;;;5051241;28;20182;-74
2023/09/02 00:17:12;;;;;;;8.60;6.30;;;15.10;99.90;;;;;;5052079;28;20183;-74
2023/09/02 00:19:37;;;;;;;12.83;6.40;;;15.10;99.90;;;;;;5051139;28;20546;-74
2023/09/02 00:22:03;;;;;;;8.43;6.40;;;15.00;99.90;;;;;;5051009;28;20206;-75
2023/09/02 00:24:29;;;;;;;7.60;6.47;;;15.10;99.90;;;;;;5052475;28;20171;-75
2023/09/02 00:26:54;;;;;;;7.27;5.10;;;15.10;99.90;;;;;;5050806;28;20409;-74
2023/09/02 00:29:20;;;;;;;6.27;4.97;;;15.20;99.90;;;;;;5052467;28;20628;-73
2023/09/02 00:31:45;;;;;;;5.30;4.80;;;15.20;99.90;;;;;;5052243;28;20175;-74
2023/09/02 00:34:11;;;;;;;7.70;6.07;;;15.20;99.90;;;;;;5052077;28;20201;-74
2023/09/02 00:36:36;;;;;;;6.30;5.40;;;15.10;99.90;;;;;;5050257;28;20269;-74
2023/09/02 00:39:02;;;;;;;8.37;5.77;;;15.10;99.90;;;;;;5050912;28;20175;-74
2023/09/02 00:41:37;;;;;;;6.10;5.50;;;15.00;99.90;;;;;;5040167;28;20186;-74
2023/09/02 00:44:03;;;;;;;6.80;5.83;;;15.00;99.90;;;;;;5046200;28;20194;-72
2023/09/02 00:46:29;;;;;;;8.80;5.43;;;15.00;99.90;;;;;;5051629;28;20470;-73
2023/09/02 00:48:54;;;;;;;6.87;5.87;;;14.90;99.90;;;;;;5051626;28;20819;-74
2023/09/02 00:51:20;;;;;;;6.87;5.00;;;15.00;99.90;;;;;;5051978;28;20171;-75
2023/09/02 00:53:45;;;;;;;5.20;4.67;;;15.00;99.90;;;;;;5051766;28;20682;-74
2023/09/02 00:56:13;;;;;;;6.90;4.70;;;15.10;99.90;;;;;;5051631;28;20185;-74
2023/09/02 00:58:39;;;;;;;7.23;4.73;;;15.10;99.90;;;;;;5051913;28;20542;-73
2023/09/02 01:01:05;;;;;;;5.87;5.27;;;15.20;99.90;;;;;;5051930;28;20402;-73
2023/09/02 01:03:32;;;;;;;5.70;5.00;;;15.20;99.90;;;;;;5051633;28;20553;-74
2023/09/02 01:05:58;;;;;;;7.83;5.63;;;15.30;99.90;;;;;;5051492;28;20479;-74
2023/09/02 01:08:23;;;;;;;6.53;5.50;;;15.30;99.90;;;;;;5051928;28;20437;-73
2023/09/02 01:10:49;;;;;;;6.90;5.70;;;15.40;99.90;;;;;;5051831;28;20194;-73
2023/09/02 01:13:15;;;;;;;12.10;7.03;;;15.30;99.90;;;;;;5050440;28;20205;-74
2023/09/02 01:15:40;;;;;;;9.67;6.30;;;15.20;99.90;;;;;;5051523;28;20163;-74
2023/09/02 01:18:06;;;;;;;9.13;5.30;;;15.20;99.90;;;;;;5051576;28;20171;-74
2023/09/02 01:21:11;;;;;;;6.83;5.20;;;15.20;99.90;;;;;;5051658;28;20198;-74
2023/09/02 01:24:01;;;;;;;10.43;5.87;;;15.30;99.90;;;;;;5050340;28;20218;-74
2023/09/02 01:26:33;;;;;;;8.17;6.10;;;15.30;99.90;;;;;;5050112;28;20429;-75
2023/09/02 01:29:04;;;;;;;6.53;5.27;;;15.30;99.90;;;;;;5051587;28;20401;-74
2023/09/02 01:31:31;;;;;;;5.90;4.70;;;15.40;99.90;;;;;;5051637;28;20398;-74
2023/09/02 01:34:00;;;;;;;5.80;5.30;;;15.40;99.90;;;;;;5051220;28;20433;-74
2023/09/02 01:36:27;;;;;;;8.20;6.00;;;15.50;99.90;;;;;;5051327;28;20405;-75
2023/09/02 01:38:54;;;;;;;14.03;6.37;;;15.50;99.90;;;;;;5051449;28;20414;-74
2023/09/02 01:41:22;;;;;;;7.47;5.33;;;15.40;99.90;;;;;;5039433;28;20436;-74
2023/09/02 01:43:47;;;;;;;9.33;7.57;;;15.40;99.90;;;;;;5035498;28;20499;-75
2023/09/02 01:46:14;;;;;;;6.10;4.90;;;15.50;99.90;;;;;;5044974;28;20413;-75
2023/09/02 01:48:39;;;;;;;7.87;6.03;;;15.50;99.90;;;;;;5054795;28;20624;-74
2023/09/02 01:51:06;;;;;;;8.93;5.80;;;15.40;99.90;;;;;;5055268;28;20463;-75
2023/09/02 01:53:32;;;;;;;7.97;6.40;;;15.50;99.90;;;;;;5055136;28;20232;-75
2023/09/02 01:55:58;;;;;;;7.43;5.57;;;15.50;99.90;;;;;;5053684;28;20819;-75
2023/09/02 01:58:24;;;;;;;9.03;5.03;;;15.50;99.90;;;;;;5055183;28;20436;-75
2023/09/02 02:00:50;;;;;;;10.90;6.03;;;15.50;99.90;;;;;;5054902;28;20402;-74
2023/09/02 02:03:24;;;;;;;12.87;6.27;;;15.50;99.90;;;;;;5054756;28;20530;-75
2023/09/02 02:05:53;;;;;;;7.77;5.70;;;15.40;99.90;;;;;;5054551;28;20173;-74
2023/09/02 02:08:30;;;;;;;10.07;6.13;;;15.40;99.90;;;;;;5054969;28;20398;-75
2023/09/02 02:10:59;;;;;;;8.83;6.20;;;15.40;99.90;;;;;;5054956;28;20389;-75
2023/09/02 02:13:25;;;;;;;8.47;6.73;;;15.40;99.90;;;;;;5054909;28;20449;-74
2023/09/02 02:15:51;;;;;;;10.07;6.43;;;15.30;99.90;;;;;;5054494;28;20966;-74
2023/09/02 02:18:16;;;;;;;12.27;7.30;;;15.20;99.90;;;;;;5054612;28;20181;-75
2023/09/02 02:20:57;;;;;;;9.17;6.67;;;15.10;99.90;;;;;;5053278;28;20177;-75
2023/09/02 02:23:22;;;;;;;12.73;7.87;;;15.10;99.90;;;;;;5054583;28;20206;-75
2023/09/02 02:25:48;;;;;;;8.97;6.30;;;15.00;99.90;;;;;;5052868;28;20423;-75
2023/09/02 02:28:13;;;;;;;7.47;5.73;;;15.00;99.90;;;;;;5053375;28;20186;-74
2023/09/02 02:30:39;;;;;;;10.00;5.37;;;15.00;99.90;;;;;;5054499;28;20178;-75
2023/09/02 02:33:04;;;;;;;10.83;5.20;;;15.00;99.90;;;;;;5054385;28;20642;-75
2023/09/02 02:35:31;;;;;;;7.40;5.37;;;15.00;99.90;;;;;;5052892;28;20171;-74
2023/09/02 02:37:59;;;;;;;8.33;5.90;;;15.10;99.90;;;;;;5054384;28;20167;-74
2023/09/02 02:40:25;;;;;;;6.97;5.43;;;15.10;99.90;;;;;;5044106;28;20795;-75
2023/09/02 02:42:50;;;;;;;14.93;5.67;;;15.10;99.90;;;;;;5044548;28;20465;-75
2023/09/02 02:45:16;;;;;;;7.97;4.97;;;15.10;99.90;;;;;;5053859;28;20405;-74
2023/09/02 02:47:41;;;;;;;9.33;5.73;;;15.10;99.90;;;;;;5053797;28;20167;-74
2023/09/02 02:50:07;;;;;;;9.13;6.40;;;15.10;99.90;;;;;;5053052;28;20198;-75
2023/09/02 02:52:33;;;;;;;10.00;6.90;;;15.20;99.90;;;;;;5053932;28;20197;-75
2023/09/02 02:54:58;;;;;;;12.00;8.53;;;15.20;99.90;;;;;;5052855;28;20421;-74
2023/09/02 02:57:24;;;;;;;9.17;6.17;;;15.30;99.90;;;;;;5053796;28;20175;-75
2023/09/02 02:59:52;;;;;;;6.90;5.70;;;15.30;99.90;;;;;;5053911;28;20171;-75
2023/09/02 03:02:18;;;;;;;16.90;7.67;;;15.40;99.90;;;;;;5053724;28;20195;-74
2023/09/02 03:04:48;;;;;;;9.87;6.53;;;15.30;99.90;;;;;;5053947;28;20455;-75
2023/09/02 03:07:14;;;;;;;9.63;6.70;;;15.40;99.90;;;;;;5053638;28;20175;-74
2023/09/02 03:09:40;;;;;;;9.20;7.13;;;15.40;99.90;;;;;;5053841;28;20401;-75
2023/09/02 03:12:06;;;;;;;9.97;7.17;;;15.40;99.90;;;;;;5053756;28;20855;-75
2023/09/02 03:14:32;;;;;;;15.10;8.70;;;15.40;99.90;;;;;;5053746;28;20213;-75
2023/09/02 03:16:57;;;;;;;14.30;9.50;;;15.40;99.90;;;;;;5053329;28;20405;-74
2023/09/02 03:19:23;;;;;;;13.07;9.20;;;15.40;99.90;;;;;;5053607;28;20590;-75
2023/09/02 03:21:48;;;;;;;17.50;11.00;;;15.50;99.90;;;;;;5053486;28;20618;-73
2023/09/02 03:24:14;;;;;;;13.97;9.10;;;15.40;99.90;;;;;;5053459;28;20690;-74
2023/09/02 03:26:39;;;;;;;15.73;9.70;;;15.30;99.90;;;;;;5047233;28;20663;-74
2023/09/02 03:29:05;;;;;;;18.67;8.87;;;15.30;99.90;;;;;;5045089;28;20175;-75
2023/09/02 03:31:30;;;;;;;12.40;9.33;;;15.30;99.90;;;;;;5053328;28;20167;-75
2023/09/02 03:33:56;;;;;;;13.13;8.67;;;15.30;99.90;;;;;;5051968;28;20202;-74
2023/09/02 03:36:21;;;;;;;19.53;10.67;;;15.30;99.90;;;;;;5046142;28;20167;-74
2023/09/02 03:38:47;;;;;;;14.07;9.07;;;15.30;99.90;;;;;;5051202;28;20167;-75
2023/09/02 03:41:17;;;;;;;16.40;9.80;;;15.30;99.90;;;;;;5039115;28;20640;-74
2023/09/02 03:43:43;;;;;;;15.30;8.73;;;15.30;99.90;;;;;;5040971;28;20203;-75
2023/09/02 03:46:08;;;;;;;10.60;8.57;;;15.20;99.90;;;;;;5052705;28;20814;-74
2023/09/02 03:48:34;;;;;;;10.17;7.47;;;15.30;99.90;;;;;;5053054;28;20413;-74
2023/09/02 03:51:05;;;;;;;13.67;8.57;;;15.40;99.90;;;;;;5053107;28;20169;-75
2023/09/02 03:53:32;;;;;;;14.37;9.60;;;15.40;99.90;;;;;;5048251;28;20263;-74
2023/09/02 03:55:58;;;;;;;15.90;9.27;;;15.20;99.90;;;;;;5052362;28;20401;-74
2023/09/02 03:58:25;;;;;;;18.40;10.10;;;15.30;99.90;;;;;;5052757;28;20440;-75
2023/09/02 04:00:50;;;;;;;14.13;8.67;;;15.20;99.90;;;;;;5052576;28;20777;-75
2023/09/02 04:03:19;;;;;;;15.97;9.23;;;15.20;99.90;;;;;;5045131;28;20456;-75
2023/09/02 04:05:46;;;;;;;17.13;8.13;;;15.30;99.90;;;;;;5045140;28;20167;-74
2023/09/02 04:08:11;;;;;;;14.50;9.13;;;15.30;99.90;;;;;;5046280;28;20416;-74
2023/09/02 04:10:37;;;;;;;12.73;8.40;;;15.30;99.90;;;;;;5051984;28;20405;-74
2023/09/02 04:13:03;;;;;;;9.83;7.30;;;15.30;99.90;;;;;;5051289;28;20194;-73
2023/09/02 04:15:28;;;;;;;20.40;13.30;;;15.40;99.90;;;;;;5052236;28;20171;-74
2023/09/02 04:17:54;;;;;;;16.07;9.80;;;15.30;99.90;;;;;;5052309;28;20268;-75
2023/09/02 04:20:20;;;;;;;11.73;8.30;;;15.30;99.90;;;;;;5052239;28;20639;-74
2023/09/02 04:22:46;;;;;;;12.20;8.60;;;15.30;99.90;;;;;;5051340;28;20217;-73
2023/09/02 04:25:12;;;;;;;11.00;8.13;;;15.30;99.90;;;;;;5052087;28;20402;-74
2023/09/02 04:27:37;;;;;;;9.57;7.40;;;15.30;99.90;;;;;;5052307;28;20559;-75
2023/09/02 04:30:03;;;;;;;10.80;7.60;;;15.20;99.90;;;;;;5052124;28;20555;-74
2023/09/02 04:32:29;;;;;;;11.07;7.80;;;15.30;99.90;;;;;;5052178;28;20187;-74
2023/09/02 04:34:56;;;;;;;17.87;8.53;;;15.30;99.90;;;;;;5052009;28;20847;-75
2023/09/02 04:37:22;;;;;;;8.70;7.23;;;15.30;99.90;;;;;;5052152;28;20190;-74
2023/09/02 04:39:47;;;;;;;10.07;6.83;;;15.30;99.90;;;;;;5050587;28;20801;-74
2023/09/02 04:42:13;;;;;;;9.57;6.53;;;15.20;99.90;;;;;;5040802;28;20206;-74
2023/09/02 04:44:38;;;;;;;11.30;7.53;;;15.30;99.90;;;;;;5043661;28;20175;-75
2023/09/02 04:47:06;;;;;;;7.70;6.17;;;15.40;99.90;;;;;;5051807;28;20165;-74
2023/09/02 04:49:32;;;;;;;10.00;6.77;;;15.40;99.90;;;;;;5050806;28;20171;-74
2023/09/02 04:51:58;;;;;;;14.43;6.03;;;15.30;99.90;;;;;;5043580;28;20778;-75
2023/09/02 04:54:23;;;;;;;9.20;6.03;;;15.30;99.90;;;;;;5052042;28;20410;-74
2023/09/02 04:56:49;;;;;;;6.97;5.73;;;15.30;99.90;;;;;;5045352;28;20269;-74
2023/09/02 04:59:15;;;;;;;9.47;7.20;;;15.40;99.90;;;;;;5049802;28;20179;-74
2023/09/02 05:01:40;;;;;;;8.37;7.10;;;15.30;99.90;;;;;;5049165;28;20191;-75
2023/09/02 05:04:06;;;;;;;7.80;6.70;;;15.20;99.90;;;;;;5051653;28;20194;-74
2023/09/02 05:06:31;;;;;;;9.17;6.30;;;15.30;99.90;;;;;;5051483;28;20186;-74
2023/09/02 05:08:57;;;;;;;18.07;6.90;;;15.30;99.90;;;;;;5051878;28;20162;-74
2023/09/02 05:11:22;;;;;;;9.57;6.87;;;15.40;99.90;;;;;;5051801;28;20167;-74
2023/09/02 05:13:48;;;;;;;11.67;8.57;;;15.50;99.90;;;;;;5051678;28;20194;-73
2023/09/02 05:16:14;;;;;;;10.17;6.67;;;15.40;99.90;;;;;;5051545;28;20171;-75
2023/09/02 05:18:40;;;;;;;10.47;7.90;;;15.50;99.90;;;;;;5051713;28;20174;-74
2023/09/02 05:21:05;;;;;;;16.40;7.93;;;15.50;99.90;;;;;;5051568;28;20166;-74
2023/09/02 05:23:32;;;;;;;13.90;8.30;;;15.50;99.90;;;;;;5055662;28;20260;-74
2023/09/02 05:25:57;;;;;;;9.70;6.43;;;15.40;99.90;;;;;;5055429;28;20262;-75
2023/09/02 05:28:24;;;;;;;6.97;6.20;;;15.40;99.90;;;;;;5054423;28;20993;-74
2023/09/02 05:30:50;;;;;;;10.03;7.40;;;15.50;99.90;;;;;;5055696;28;20166;-75
2023/09/02 05:33:16;;;;;;;10.00;6.40;;;15.50;99.90;;;;;;5055434;28;20428;-74
2023/09/02 05:35:44;;;;;;;10.50;6.87;;;15.70;99.90;;;;;;5053890;28;20178;-73
2023/09/02 05:38:10;;;;;;;11.20;8.63;;;15.80;99.90;;;;;;5055416;28;20420;-74
2023/09/02 05:40:40;;;;;;;11.90;6.63;;;15.80;99.90;;;;;;5047138;28;20418;-74
2023/09/02 05:43:06;;;;;;;9.27;7.00;;;15.80;99.90;;;;;;5045644;28;20199;-75
2023/09/02 05:45:31;;;;;;;15.70;7.70;;;15.90;99.90;;;;;;5047012;28;20420;-75
2023/09/02 05:47:57;;;;;;;10.33;6.90;;;15.90;99.90;;;;;;5055008;28;20513;-74
2023/09/02 05:50:22;;;;;;;12.53;7.67;;;15.90;99.90;;;;;;5054115;28;20163;-74
2023/09/02 05:52:48;;;;;;;9.87;6.40;;;15.90;99.90;;;;;;5055147;28;20187;-74
2023/09/02 05:55:13;;;;;;;10.20;7.20;;;16.00;99.90;;;;;;5054917;28;20178;-74
2023/09/02 05:57:39;;;;;;;12.33;7.50;;;15.90;99.90;;;;;;5055095;28;20548;-74
2023/09/02 06:00:05;;;;;;;9.40;6.77;;;16.10;99.90;;;;;;5055124;28;20254;-74
2023/09/02 06:02:34;;;;;;;11.80;7.67;;;16.20;99.90;;;;;;5055000;28;20252;-74
2023/09/02 06:05:00;;;;;;;14.60;9.30;;;16.30;99.90;;;;;;5053639;28;20500;-74
2023/09/02 06:07:25;;;;;;;15.53;10.37;;;16.40;99.90;;;;;;5054960;28;20425;-75
2023/09/02 06:09:51;;;;;;;13.23;7.07;;;16.50;99.90;;;;;;5054952;28;20497;-75
2023/09/02 06:12:17;;;;;;;14.20;8.20;;;16.50;99.90;;;;;;5054807;28;20190;-75
2023/09/02 06:14:42;;;;;;;16.07;9.87;;;16.60;99.90;;;;;;5054614;28;20174;-74
2023/09/02 06:17:08;;;;;;;13.40;7.60;;;16.40;99.90;;;;;;5054593;28;20228;-74
2023/09/02 06:19:35;;;;;;;10.20;7.30;;;16.50;99.90;;;;;;5054845;28;20194;-74
2023/09/02 06:22:00;;;;;;;10.30;7.13;;;16.50;99.90;;;;;;5053106;28;20363;-74
2023/09/02 06:24:27;;;;;;;12.93;7.67;;;16.60;99.90;;;;;;5053442;28;20488;-74
2023/09/02 06:26:53;;;;;;;11.50;7.80;;;16.80;99.90;;;;;;5054349;28;20393;-73
2023/09/02 06:29:18;;;;;;;13.33;8.47;;;16.70;99.90;;;;;;5054565;28;20461;-75
2023/09/02 06:31:45;;;;;;;20.93;10.73;;;16.70;99.90;;;;;;5054521;28;20220;-74
2023/09/02 06:34:11;;;;;;;21.77;10.27;;;16.70;99.90;;;;;;5052563;28;20429;-74
2023/09/02 06:36:36;;;;;;;18.27;10.27;;;16.80;99.90;;;;;;5045928;28;20927;-75
2023/09/02 06:39:03;;;;;;;16.20;10.67;;;16.80;99.90;;;;;;5051010;28;20178;-74
2023/09/02 06:41:29;;;;;;;22.23;11.10;;;16.90;99.90;;;;;;5040746;28;20552;-75
2023/09/02 06:43:54;;;;;;;20.30;10.77;;;17.00;99.90;;;;;;5045423;28;20448;-74
2023/09/02 06:46:20;;;;;;;23.50;10.90;;;17.10;99.90;;;;;;5053878;28;20163;-73
2023/09/02 06:48:47;;;;;;;18.93;12.43;;;17.20;99.90;;;;;;5054601;28;20238;-74
2023/09/02 06:51:14;;;;;;;32.77;14.27;;;17.30;99.90;;;;;;5054005;28;20488;-74
2023/09/02 06:53:40;;;;;;;25.93;14.30;;;17.40;99.90;;;;;;5054113;28;20898;-73
2023/09/02 06:56:08;;;;;;;27.23;14.33;;;17.40;99.90;;;;;;5053674;28;20427;-74
2023/09/02 06:58:34;;;;;;;28.77;12.90;;;17.40;99.90;;;;;;5052860;28;20414;-74
2023/09/02 07:00:59;;;;;;;24.13;12.23;;;17.60;99.90;;;;;;5054014;28;20402;-75
2023/09/02 07:03:25;;;;;;;31.13;15.30;;;17.80;99.90;;;;;;5052490;28;20461;-74
2023/09/02 07:05:50;;;;;;;36.77;16.10;;;18.00;99.90;;;;;;5052144;28;20166;-73
2023/09/02 07:08:16;;;;;;;30.80;14.67;;;18.10;99.90;;;;;;5053892;28;20576;-72
2023/09/02 07:10:42;;;;;;;28.80;15.13;;;18.20;99.90;;;;;;5052274;28;20655;-74
2023/09/02 07:13:07;;;;;;;31.00;16.20;;;18.40;99.90;;;;;;5052408;28;20202;-73
2023/09/02 07:15:34;;;;;;;26.07;14.97;;;18.50;99.90;;;;;;5047480;28;20182;-73
2023/09/02 07:18:00;;;;;;;27.20;15.87;;;18.50;99.90;;;;;;5047385;28;20174;-70
2023/09/02 07:20:26;;;;;;;34.10;17.10;;;18.70;99.90;;;;;;5044977;28;20425;-69
2023/09/02 07:22:51;;;;;;;33.73;17.67;;;18.90;99.90;;;;;;5045494;28;20215;-70
2023/09/02 07:25:17;;;;;;;24.57;14.27;;;19.00;99.90;;;;;;5050737;28;20171;-70
2023/09/02 07:27:42;;;;;;;35.20;17.27;;;19.20;99.90;;;;;;5046498;28;20665;-71
2023/09/02 07:30:08;;;;;;;29.33;17.00;;;19.30;99.90;;;;;;5053251;28;20163;-70
2023/09/02 07:32:34;;;;;;;27.33;17.90;;;19.50;99.90;;;;;;5053244;28;20191;-71
2023/09/02 07:34:59;;;;;;;26.30;16.93;;;19.60;99.90;;;;;;5053121;28;20417;-72
2023/09/02 07:37:25;;;;;;;20.27;13.23;;;19.70;99.90;;;;;;5053320;28;20175;-71
2023/09/02 07:39:50;;;;;;;22.33;14.40;;;20.00;99.90;;;;;;5053275;28;20197;-71
2023/09/02 07:42:16;;;;;;;19.33;14.37;;;20.10;99.90;;;;;;5032318;28;20203;-70
2023/09/02 07:44:41;;;;;;;16.63;11.13;;;20.20;99.90;;;;;;5049699;28;20171;-71
2023/09/02 07:47:07;;;;;;;14.33;10.53;;;20.50;99.90;;;;;;5052807;28;20657;-71
2023/09/02 07:49:32;;;;;;;12.67;9.77;;;20.80;99.90;;;;;;5053103;28;20656;-70
2023/09/02 07:51:58;;;;;;;16.57;10.33;;;21.30;99.90;;;;;;5052974;28;20190;-70
2023/09/02 07:54:23;;;;;;;12.33;10.77;;;22.10;99.90;;;;;;5052956;28;20175;-71
2023/09/02 07:56:48;;;;;;;12.23;8.87;;;22.50;99.90;;;;;;5047468;28;20703;-74
2023/09/02 07:59:14;;;;;;;10.20;8.50;;;22.90;99.90;;;;;;5052820;28;20175;-73
2023/09/02 08:01:39;;;;;;;8.20;7.30;;;23.50;99.90;;;;;;5052720;28;20163;-70
2023/09/02 08:04:05;;;;;;;10.53;7.90;;;24.00;99.90;;;;;;5052755;28;20683;-70
2023/09/02 08:06:31;;;;;;;12.03;10.30;;;24.50;99.90;;;;;;5052349;28;20183;-70
2023/09/02 08:08:56;;;;;;;10.80;8.73;;;24.60;99.90;;;;;;5052716;28;20401;-74
2023/09/02 08:11:22;;;;;;;10.93;7.87;;;24.70;99.90;;;;;;5044586;28;20675;-74
2023/09/02 08:13:48;;;;;;;8.10;6.63;;;25.10;99.90;;;;;;5050957;28;20198;-73
2023/09/02 08:16:13;;;;;;;8.50;7.43;;;25.30;99.90;;;;;;5052238;28;20249;-71
2023/09/02 08:18:39;;;;;;;9.70;8.40;;;25.30;99.90;;;;;;5052444;28;20575;-69
2023/09/02 08:21:09;;;;;;;11.50;7.10;;;25.80;99.90;;;;;;5052495;28;20174;-69
2023/09/02 08:23:35;;;;;;;6.13;5.53;;;26.60;99.90;;;;;;5044895;28;20679;-71
2023/09/02 08:26:10;;;;;;;5.70;5.20;;;27.60;99.90;;;;;;5052167;28;20401;-71
2023/09/02 08:28:36;;;;;;;7.60;6.80;;;28.90;99.90;;;;;;5052449;28;20224;-71
2023/09/02 08:31:01;;;;;;;7.10;4.83;;;29.80;99.90;;;;;;5039794;28;20426;-68
2023/09/02 08:33:27;;;;;;;7.70;7.00;;;30.70;99.90;;;;;;5043891;28;20226;-68
2023/09/02 08:35:52;;;;;;;5.60;5.10;;;31.10;92.70;;;;;;5042924;28;20189;-68
2023/09/02 08:38:18;;;;;;;7.77;7.13;;;32.10;95.10;;;;;;5037452;28;20202;-68
2023/09/02 08:40:43;;;;;;;5.40;5.00;;;32.70;70.80;;;;;;5040595;28;20179;-69
2023/09/02 08:43:09;;;;;;;5.60;5.10;;;33.80;71.10;;;;;;5037271;28;20225;-68
2023/09/02 08:45:36;;;;;;;4.73;4.23;;;35.00;64.00;;;;;;5039336;28;20185;-71
2023/09/02 08:48:04;;;;;;;4.60;4.20;;;36.80;59.60;;;;;;5044551;28;20725;-73
2023/09/02 08:50:30;;;;;;;5.87;5.37;;;38.70;55.30;;;;;;5044885;28;20486;-72
2023/09/02 08:52:56;;;;;;;4.57;4.27;;;39.70;47.10;;;;;;5043412;28;20444;-72
2023/09/02 08:55:22;;;;;;;5.07;4.63;;;40.90;45.40;;;;;;5047691;28;20795;-72
2023/09/02 08:57:49;;;;;;;3.50;3.20;;;40.70;42.20;;;;;;5041865;28;20413;-69
2023/09/02 09:00:14;;;;;;;5.23;3.80;;;41.40;43.20;;;;;;5043686;28;20174;-72
2023/09/02 09:02:41;;;;;;;3.90;3.60;;;42.80;43.00;;;;;;5051457;28;20544;-73
2023/09/02 09:05:08;;;;;;;3.63;3.33;;;44.20;41.60;;;;;;5043230;28;20309;-70
2023/09/02 09:07:39;;;;;;;8.00;7.33;;;45.50;40.00;;;;;;5045260;28;20922;-70
2023/09/02 09:10:08;;;;;;;4.40;4.07;;;46.00;34.40;;;;;;5035845;28;20396;-70
2023/09/02 09:12:34;;;;;;;7.20;6.70;;;47.30;35.50;;;;;;5040783;28;20434;-71
2023/09/02 09:15:01;;;;;;;5.20;4.80;;;47.70;31.80;;;;;;5051164;28;20399;-70
2023/09/02 09:17:28;;;;;;;3.90;3.60;;;48.70;32.40;;;;;;5048771;28;20941;-72
2023/09/02 09:19:56;;;;;;;4.30;3.93;;;49.60;33.00;;;;;;5047743;28;20487;-71
2023/09/02 09:22:21;;;;;;;3.53;3.33;;;50.30;30.70;;;;;;5049262;28;20464;-71
2023/09/02 09:24:47;;;;;;;6.20;5.60;;;51.00;30.30;;;;;;5043302;28;20490;-71
2023/09/02 09:27:13;;;;;;;5.27;4.90;;;51.30;28.60;;;;;;5051403;28;20174;-71
2023/09/02 09:29:41;;;;;;;4.43;4.03;;;52.00;28.90;;;;;;5045923;28;20665;-71
2023/09/02 09:32:11;;;;;;;4.10;3.80;;;52.60;29.40;;;;;;5051422;28;20376;-69
2023/09/02 09:34:44;;;;;;;5.50;5.10;;;53.20;29.10;;;;;;5042352;28;20407;-70
2023/09/02 09:37:10;;;;;;;4.33;4.03;;;51.90;26.40;;;;;;5051180;28;20406;-72
2023/09/02 09:39:41;;;;;;;3.30;3.00;;;51.30;27.10;;;;;;5051328;28;20380;-73
2023/09/02 09:42:06;;;;;;;3.80;3.50;;;51.50;28.30;;;;;;5038125;28;20274;-70
2023/09/02 09:44:32;;;;;;;3.17;2.97;;;52.00;28.00;;;;;;5045174;28;20844;-71
2023/09/02 09:46:57;;;;;;;3.10;2.90;;;52.00;27.80;;;;;;5047527;28;20660;-70
2023/09/02 09:49:27;;;;;;;4.77;4.37;;;52.30;27.90;;;;;;5039774;28;20179;-70
2023/09/02 09:51:59;;;;;;;3.00;2.80;;;52.10;26.50;;;;;;5049674;28;20262;-70
2023/09/02 09:54:41;;;;;;;4.93;4.57;;;52.60;27.40;;;;;;5051378;28;20383;-71
2023/09/02 09:57:14;;;;;;;2.90;2.70;;;52.90;26.10;;;;;;5051192;28;20437;-71
2023/09/02 09:59:50;;;;;;;3.20;3.00;;;53.50;26.50;;;;;;5044327;28;20525;-72
2023/09/02 10:02:18;;;;;;;3.30;3.10;;;51.60;26.00;;;;;;5046839;28;20972;-73
2023/09/02 10:04:53;;;;;;;2.80;2.60;;;50.10;26.60;;;;;;5051173;28;20376;-72
2023/09/02 10:07:23;;;;;;;4.87;4.33;;;50.00;28.40;;;;;;5050887;28;20899;-73
2023/09/02 10:09:49;;;;;;;2.90;2.70;;;50.10;27.20;;;;;;5054819;28;20909;-73
2023/09/02 10:12:15;;;;;;;4.83;4.33;;;51.20;27.80;;;;;;5054863;28;20452;-73
2023/09/02 10:14:42;;;;;;;2.83;2.70;;;51.90;26.70;;;;;;5054657;28;20170;-73
2023/09/02 10:17:09;;;;;;;2.70;2.50;;;52.40;26.50;;;;;;5054773;28;20427;-74
2023/09/02 10:19:35;;;;;;;2.60;2.50;;;53.00;26.80;;;;;;5046388;28;20384;-74
2023/09/02 10:22:02;;;;;;;2.70;2.60;;;53.60;27.10;;;;;;5034660;28;20436;-72
2023/09/02 10:24:33;;;;;;;2.70;2.50;;;53.80;25.30;;;;;;5034480;28;20377;-74
2023/09/02 10:27:00;;;;;;;4.17;3.87;;;54.40;26.10;;;;;;5041799;28;20417;-73
2023/09/02 10:29:32;;;;;;;4.73;4.40;;;54.90;25.40;;;;;;5053998;28;20834;-73
2023/09/02 10:32:03;;;;;;;3.90;3.60;;;54.80;24.70;;;;;;5054378;28;20764;-73
2023/09/02 10:34:39;;;;;;;3.43;3.23;;;55.30;25.10;;;;;;5054651;28;20397;-74
2023/09/02 10:37:08;;;;;;;3.00;2.80;;;56.00;25.40;;;;;;5054374;28;20404;-74
2023/09/02 10:39:53;;;;;;;3.20;3.00;;;56.80;25.10;;;;;;5054404;28;20379;-74
2023/09/02 10:42:19;;;;;;;3.30;3.00;;;57.60;24.80;;;;;;5043757;28;20518;-74
2023/09/02 10:44:47;;;;;;;3.37;3.17;;;58.20;24.50;;;;;;5038370;28;20794;-74
2023/09/02 10:47:13;;;;;;;3.73;3.50;;;58.90;24.70;;;;;;5053915;28;20420;-74
2023/09/02 10:49:40;;;;;;;3.77;3.57;;;59.40;24.60;;;;;;5048349;28;20402;-73
2023/09/02 10:52:05;;;;;;;4.00;3.70;;;59.90;23.80;;;;;;5053741;28;20413;-74
2023/09/02 10:55:03;;;;;;;3.87;3.67;;;60.30;23.70;;;;;;5047528;28;20420;-72
2023/09/02 10:57:43;;;;;;;3.93;3.77;;;60.70;23.40;;;;;;5050969;28;20178;-72
2023/09/02 11:00:21;;;;;;;5.27;4.77;;;61.10;23.00;;;;;;5048102;28;20488;-72
2023/09/02 11:02:48;;;;;;;5.28;4.97;;;61.30;22.30;;;;;;5054295;28;20467;-72
2023/09/02 11:05:16;;;;;;;4.40;4.20;;;61.60;22.20;;;;;;5053758;28;20172;-73
2023/09/02 11:07:41;;;;;;;4.35;4.15;;;61.80;22.00;;;;;;5054125;28;20170;-72
2023/09/02 11:10:08;;;;;;;4.05;3.85;;;62.00;22.10;;;;;;5054293;28;20193;-72
2023/09/02 11:12:34;;;;;;;4.10;3.90;;;60.70;21.60;;;;;;5054095;28;20278;-72
2023/09/02 11:15:09;;;;;;;3.33;3.13;;;59.40;22.00;;;;;;5054016;28;21030;-72
2023/09/02 11:17:36;;;;;;;3.20;3.00;;;57.70;22.30;;;;;;5054268;28;20650;-72
2023/09/02 11:20:03;;;;;;;2.50;2.40;;;55.10;22.70;;;;;;5053887;28;20417;-72
2023/09/02 11:23:01;;;;;;;2.90;2.70;;;52.30;23.50;;;;;;5053913;28;20428;-72
2023/09/02 11:25:33;;;;;;;2.60;2.40;;;49.70;24.80;;;;;;5053724;28;20379;-71
2023/09/02 11:28:01;;;;;;;3.10;2.30;;;48.20;26.30;;;;;;5054008;28;20471;-71
2023/09/02 11:30:29;;;;;;;5.07;2.43;;;47.20;27.10;;;;;;5053639;28;20433;-71
2023/09/02 11:32:56;;;;;;;2.80;2.60;;;47.30;27.80;;;;;;5053640;28;20395;-71
2023/09/02 11:35:37;;;;;;;3.03;2.40;;;48.90;28.00;;;;;;5053204;28;20401;-72
2023/09/02 11:38:15;;;;;;;2.83;2.63;;;50.90;26.40;;;;;;5053637;28;20427;-71
2023/09/02 11:40:41;;;;;;;2.20;2.10;;;52.70;26.50;;;;;;5053050;28;20375;-72
2023/09/02 11:43:07;;;;;;;2.57;2.37;;;53.50;25.60;;;;;;5042157;28;20439;-71
2023/09/02 11:45:38;;;;;;;2.60;2.50;;;52.30;24.80;;;;;;5052851;28;20174;-72
2023/09/02 11:48:04;;;;;;;2.17;2.07;;;50.10;25.00;;;;;;5045930;28;20652;-71
2023/09/02 11:50:29;;;;;;;2.30;2.10;;;47.80;25.90;;;;;;5053286;28;20384;-73
2023/09/02 11:52:57;;;;;;;2.57;2.47;;;45.80;27.00;;;;;;5043204;28;20441;-71
2023/09/02 11:55:23;;;;;;;2.60;2.40;;;44.10;28.50;;;;;;5048899;28;20174;-73
2023/09/02 11:57:50;;;;;;;3.20;3.00;;;44.80;30.90;;;;;;5052795;28;20452;-74
2023/09/02 12:00:18;;;;;;;2.70;2.50;;;47.30;30.20;;;;;;5052497;28;20796;-73
2023/09/02 12:02:44;;;;;;;3.00;2.70;;;50.10;28.60;;;;;;5052649;28;20455;-72
2023/09/02 12:05:10;;;;;;;2.53;2.37;;;52.60;27.00;;;;;;5052513;28;20742;-73
2023/09/02 12:07:38;;;;;;;3.27;2.97;;;54.50;25.70;;;;;;5052670;28;20421;-73
2023/09/02 12:10:08;;;;;;;2.90;2.70;;;56.40;24.90;;;;;;5052675;28;20416;-72
2023/09/02 12:12:38;;;;;;;3.50;3.30;;;57.70;24.10;;;;;;5052571;28;20448;-72
2023/09/02 12:15:05;;;;;;;4.00;3.80;;;58.70;23.40;;;;;;5052429;28;20396;-73
2023/09/02 12:17:31;;;;;;;3.60;3.40;;;59.70;22.60;;;;;;5052529;28;20405;-73
2023/09/02 12:19:57;;;;;;;2.67;2.57;;;58.20;21.70;;;;;;5052316;28;20487;-73
2023/09/02 12:22:22;;;;;;;3.10;2.90;;;56.60;22.20;;;;;;5052163;28;20539;-74
2023/09/02 12:24:48;;;;;;;2.60;2.50;;;56.80;22.80;;;;;;5052408;28;20401;-73
2023/09/02 12:27:17;;;;;;;3.00;2.80;;;55.90;22.40;;;;;;5052171;28;20169;-73
2023/09/02 12:30:03;;;;;;;2.37;2.27;;;54.20;22.90;;;;;;5052114;28;20171;-73
2023/09/02 12:32:29;;;;;;;2.33;2.23;;;51.60;23.60;;;;;;5051522;28;20446;-73
2023/09/02 12:34:56;;;;;;;2.03;1.90;;;50.90;24.90;;;;;;5052086;28;20749;-73
2023/09/02 12:37:22;;;;;;;2.97;2.30;;;52.10;25.40;;;;;;5050761;28;20685;-74
2023/09/02 12:39:49;;;;;;;2.47;2.37;;;54.00;25.30;;;;;;5052227;28;20849;-73